Time;durP1;ratioP1;P1;durP2;ratioP2;P2;SDS_P1;SDS_P2;PMS_P1;PMS_P2;Temp;Humidity;BMP_temperature;BMP_pressure;BME280_temperature;BME280_humidity;BME280_pressure;Samples;Min_cycle;Max_cycle;Signal;HPM_P1;HPM_P2
2021/10/05 00:09:09;;;;;;;16.25;10.75;;;;;;;12.25;95.06;100325.91;20996309;28;20040;-75
2021/10/05 00:19:11;;;;;;;15.95;11.43;;;;;;;12.30;95.34;100309.16;21003653;28;20098;-75
2021/10/05 00:29:13;;;;;;;17.60;11.85;;;;;;;12.11;96.19;100288.63;21019567;28;20095;-77
2021/10/05 00:39:15;;;;;;;24.48;13.10;;;;;;;12.16;96.11;100292.88;20994082;28;20048;-75
2021/10/05 00:49:17;;;;;;;19.35;14.82;;;;;;;12.15;96.34;100280.66;20989302;28;20048;-75
2021/10/05 00:59:19;;;;;;;21.10;14.95;;;;;;;12.14;96.68;100275.44;20971649;28;20048;-75
2021/10/05 01:09:21;;;;;;;22.65;16.42;;;;;;;12.10;96.79;100258.06;20986859;28;20048;-75
2021/10/05 01:19:23;;;;;;;24.08;17.17;;;;;;;12.05;97.04;100255.53;20979868;28;20049;-75
2021/10/05 01:29:28;;;;;;;26.45;18.15;;;;;;;12.07;96.91;100228.38;20987718;28;20051;-75
2021/10/05 01:39:32;;;;;;;22.75;16.20;;;;;;;11.98;96.96;100218.09;20984603;28;20559;-75
2021/10/05 01:49:36;;;;;;;22.85;16.17;;;;;;;11.93;97.25;100204.22;20985311;28;20049;-75
2021/10/05 01:59:38;;;;;;;24.98;15.13;;;;;;;11.86;97.12;100196.53;20983351;28;20048;-75
2021/10/05 02:09:39;;;;;;;20.60;14.18;;;;;;;11.88;97.38;100185.13;20983439;28;20053;-74
2021/10/05 02:19:41;;;;;;;19.42;12.27;;;;;;;11.83;96.83;100194.81;20983396;28;20044;-76
2021/10/05 02:29:45;;;;;;;22.40;13.20;;;;;;;11.86;96.36;100179.03;20983426;28;20045;-74
2021/10/05 02:39:47;;;;;;;18.45;12.85;;;;;;;11.82;96.16;100172.97;20983314;28;20044;-74
2021/10/05 02:49:49;;;;;;;21.25;12.60;;;;;;;11.85;96.40;100166.81;20982417;28;20052;-73
2021/10/05 02:59:51;;;;;;;16.13;11.23;;;;;;;11.93;96.22;100154.38;20981858;28;20045;-74
2021/10/05 03:09:53;;;;;;;18.00;10.90;;;;;;;11.90;95.74;100130.84;20982724;28;20455;-73
2021/10/05 03:19:54;;;;;;;16.45;10.05;;;;;;;11.92;95.66;100129.00;20996076;28;20048;-74
2021/10/05 03:29:56;;;;;;;16.58;9.88;;;;;;;11.88;96.58;100127.41;20995783;28;20490;-75
2021/10/05 03:39:58;;;;;;;16.20;10.85;;;;;;;11.84;95.86;100112.63;20993235;28;20040;-75
2021/10/05 03:50:00;;;;;;;15.38;10.73;;;;;;;11.80;96.84;100119.69;20993645;28;20498;-74
2021/10/05 04:00:04;;;;;;;14.93;10.48;;;;;;;11.85;95.76;100111.72;20993667;28;20056;-74
2021/10/05 04:10:06;;;;;;;14.77;10.57;;;;;;;11.89;96.10;100108.13;20991530;28;20110;-74
2021/10/05 04:20:09;;;;;;;17.92;12.07;;;;;;;11.93;96.30;100104.53;21003012;22;20053;-70
2021/10/05 04:30:11;;;;;;;15.85;10.82;;;;;;;11.95;95.55;100081.72;20908286;28;20041;-69
2021/10/05 04:40:13;;;;;;;14.52;11.05;;;;;;;11.92;95.91;100055.56;20890669;28;20049;-70
2021/10/05 04:50:15;;;;;;;16.60;11.02;;;;;;;11.89;95.71;100074.03;20908818;28;20410;-70
2021/10/05 05:00:17;;;;;;;17.13;10.63;;;;;;;11.93;96.12;100067.78;20916108;28;20461;-70
2021/10/05 05:10:19;;;;;;;18.27;10.68;;;;;;;11.99;96.39;100056.28;20905474;28;20118;-69
2021/10/05 05:20:21;;;;;;;16.80;11.23;;;;;;;11.97;95.72;100058.06;20904111;28;20041;-69
2021/10/05 05:30:23;;;;;;;15.93;10.65;;;;;;;11.94;96.39;100043.28;20886107;28;21522;-69
2021/10/05 05:40:25;;;;;;;16.63;10.95;;;;;;;11.94;95.84;100037.19;20902438;28;20052;-69
2021/10/05 05:50:27;;;;;;;19.73;11.55;;;;;;;11.97;95.34;100022.19;20884737;28;20107;-69
2021/10/05 06:00:29;;;;;;;16.50;11.77;;;;;;;12.00;96.12;100011.63;20901423;28;20466;-69
2021/10/05 06:10:31;;;;;;;17.27;11.60;;;;;;;12.01;96.82;99989.72;20901508;28;20425;-69
2021/10/05 06:20:33;;;;;;;20.77;13.45;;;;;;;12.03;96.83;99998.41;20900976;28;20212;-70
2021/10/05 06:30:36;;;;;;;21.80;12.88;;;;;;;12.12;96.45;99980.66;20899929;28;20045;-69
2021/10/05 06:40:38;;;;;;;19.20;12.45;;;;;;;12.41;95.66;99988.59;20955404;28;20393;-70
2021/10/05 06:50:40;;;;;;;20.10;12.77;;;;;;;12.45;95.75;99990.19;20993436;28;20049;-69
2021/10/05 07:00:42;;;;;;;21.13;13.65;;;;;;;12.35;96.12;100007.13;20996865;28;20044;-69
2021/10/05 07:10:44;;;;;;;26.02;15.27;;;;;;;12.35;96.20;100012.38;20976427;28;20045;-69
2021/10/05 07:20:46;;;;;;;27.90;14.68;;;;;;;12.43;95.73;100010.38;20953549;28;20091;-69
2021/10/05 07:30:48;;;;;;;30.77;15.95;;;;;;;12.52;95.70;100004.00;20934957;28;20048;-69
2021/10/05 07:41:10;;;;;;;28.55;15.15;;;;;;;12.61;95.00;99992.38;20957142;28;20536;-69
2021/10/05 07:51:11;;;;;;;25.95;13.35;;;;;;;12.79;94.29;99970.75;20951497;28;20045;-69
2021/10/05 08:01:13;;;;;;;23.88;12.45;;;;;;;12.96;94.32;99978.97;20969339;28;20051;-70
2021/10/05 08:11:16;;;;;;;19.60;11.05;;;;;;;13.21;93.48;99963.25;20981144;28;20045;-69
2021/10/05 08:21:18;;;;;;;19.70;10.45;;;;;;;13.55;91.86;99941.09;20910679;28;20076;-69
2021/10/05 08:31:20;;;;;;;16.98;9.30;;;;;;;13.92;91.32;99929.25;20925629;28;20048;-69
2021/10/05 08:41:23;;;;;;;21.02;10.55;;;;;;;14.35;88.88;99933.75;20991864;28;20044;-69
2021/10/05 08:51:24;;;;;;;16.92;9.18;;;;;;;14.42;88.48;99940.50;20954643;28;20459;-68
2021/10/05 09:01:34;;;;;;;15.52;8.85;;;;;;;14.26;89.41;99949.91;20970527;28;20493;-68
2021/10/05 09:11:43;;;;;;;12.43;7.43;;;;;;;14.60;87.75;99942.44;20972713;28;20053;-68
2021/10/05 09:21:48;;;;;;;9.20;5.25;;;;;;;14.88;86.91;99928.16;20904876;28;20102;-69
2021/10/05 09:32:08;;;;;;;;;;;;;;;14.85;86.39;99907.19;20904459;28;20546;-69
2021/10/05 09:42:16;;;;;;;6.75;3.60;;;;;;;14.94;84.09;99896.25;20903279;28;19928;-70
2021/10/05 09:52:18;;;;;;;6.93;3.88;;;;;;;15.21;84.19;99894.25;20942533;28;20045;-70
2021/10/05 10:02:24;;;;;;;8.35;3.20;;;;;;;15.29;81.88;99896.56;20973230;28;20068;-70
2021/10/05 10:12:26;;;;;;;4.18;2.28;;;;;;;15.02;81.85;99894.16;20936142;28;20045;-70
2021/10/05 10:22:28;;;;;;;4.55;2.30;;;;;;;15.13;82.61;99901.63;20908497;28;20085;-70
2021/10/05 10:32:43;;;;;;;3.80;1.90;;;;;;;15.72;80.85;99900.00;20918651;28;20049;-70
2021/10/05 10:42:45;;;;;;;3.42;1.60;;;;;;;16.21;77.00;99906.50;20919276;28;20045;-70
2021/10/05 10:52:48;;;;;;;2.60;1.13;;;;;;;15.51;78.48;99902.59;20917507;28;20414;-70
2021/10/05 11:02:52;;;;;;;3.17;1.33;;;;;;;16.14;77.47;99895.41;20961201;28;20067;-70
2021/10/05 11:12:57;;;;;;;1.85;1.02;;;;;;;16.48;75.86;99880.59;20999957;28;20139;-70
2021/10/05 11:23:01;;;;;;;1.83;0.90;;;;;;;16.46;72.20;99863.94;21003080;28;20048;-71
2021/10/05 11:33:03;;;;;;;2.63;0.80;;;;;;;16.44;73.45;99844.66;20977477;28;20059;-71
2021/10/05 11:43:05;;;;;;;3.00;0.90;;;;;;;16.70;73.53;99824.00;20996126;28;20441;-70
2021/10/05 11:53:06;;;;;;;1.60;0.80;;;;;;;16.79;72.26;99813.84;20995312;28;20045;-70
2021/10/05 12:03:09;;;;;;;1.60;0.90;;;;;;;16.37;73.24;99804.44;20992934;28;20052;-70
2021/10/05 12:13:15;;;;;;;2.45;0.70;;;;;;;16.60;72.30;99782.16;20991760;28;20045;-70
2021/10/05 12:23:17;;;;;;;1.05;0.55;;;;;;;16.85;70.73;99760.66;20992480;28;20102;-69
2021/10/05 12:33:30;;;;;;;1.50;0.75;;;;;;;17.18;68.90;99763.31;20975196;28;20048;-70
2021/10/05 12:43:34;;;;;;;3.28;0.60;;;;;;;17.19;67.09;99757.09;20990114;28;20041;-70
2021/10/05 12:53:37;;;;;;;1.67;0.75;;;;;;;17.34;67.26;99747.50;20989721;28;20079;-70
2021/10/05 13:03:39;;;;;;;2.40;0.63;;;;;;;17.43;65.86;99739.03;20987945;28;20048;-70
2021/10/05 13:13:41;;;;;;;1.65;0.55;;;;;;;17.12;66.70;99737.19;20988572;28;20045;-70
2021/10/05 13:23:44;;;;;;;1.52;0.70;;;;;;;17.20;66.21;99742.09;20985674;28;20106;-70
2021/10/05 13:33:46;;;;;;;3.92;1.50;;;;;;;17.22;66.52;99724.34;20968291;28;20102;-70
2021/10/05 13:43:47;;;;;;;1.75;0.68;;;;;;;17.48;63.75;99728.19;20986443;28;20049;-70
2021/10/05 13:53:49;;;;;;;0.90;0.60;;;;;;;17.52;63.56;99732.38;20986518;28;20472;-70
2021/10/05 14:03:51;;;;;;;1.70;0.50;;;;;;;17.53;65.07;99734.09;20962590;28;20105;-70
2021/10/05 14:13:56;;;;;;;2.38;0.60;;;;;;;17.32;65.68;99719.41;20978740;28;20049;-70
2021/10/05 14:23:58;;;;;;;1.25;0.50;;;;;;;17.30;64.83;99702.78;20964644;28;20102;-70
2021/10/05 14:34:02;;;;;;;1.27;0.52;;;;;;;16.95;66.69;99694.91;20983110;28;20662;-70
2021/10/05 14:44:05;;;;;;;1.98;0.60;;;;;;;16.87;68.36;99697.13;20983636;28;20060;-70
2021/10/05 14:54:07;;;;;;;3.63;0.80;;;;;;;17.16;67.83;99683.19;20983109;28;20052;-70
2021/10/05 15:04:09;;;;;;;2.83;0.70;;;;;;;17.25;65.75;99673.03;20982165;28;20049;-69
2021/10/05 15:14:10;;;;;;;0.93;0.50;;;;;;;17.11;67.93;99669.38;20980863;28;20098;-69
2021/10/05 15:24:12;;;;;;;1.42;0.65;;;;;;;16.97;67.39;99671.91;20979373;28;20052;-70
2021/10/05 15:34:14;;;;;;;2.28;0.90;;;;;;;16.89;68.30;99663.53;20995962;28;20494;-70
2021/10/05 15:44:16;;;;;;;1.77;0.90;;;;;;;16.58;72.25;99670.41;20977936;28;20045;-70
2021/10/05 15:54:19;;;;;;;2.33;0.80;;;;;;;16.25;73.92;99672.13;20994941;28;20121;-70
2021/10/05 16:04:26;;;;;;;3.03;1.30;;;;;;;16.00;75.01;99689.22;20995842;28;20094;-70
2021/10/05 16:14:27;;;;;;;3.10;1.27;;;;;;;15.92;75.09;99694.00;20995049;28;20048;-71
2021/10/05 16:24:30;;;;;;;4.00;1.85;;;;;;;15.79;76.79;99696.38;20993623;28;20040;-71
2021/10/05 16:34:31;;;;;;;3.03;1.50;;;;;;;15.59;79.34;99705.22;20993703;28;20048;-70
2021/10/05 16:44:33;;;;;;;4.15;1.50;;;;;;;15.45;81.50;99728.75;20991691;28;20048;-69
2021/10/05 16:54:35;;;;;;;3.45;1.70;;;;;;;15.13;83.34;99736.34;20990461;28;20048;-70
2021/10/05 17:04:36;;;;;;;3.25;1.60;;;;;;;14.98;84.75;99766.03;20971006;28;20143;-70
2021/10/05 17:14:39;;;;;;;4.30;1.58;;;;;;;14.74;85.69;99769.75;20990058;28;20052;-71
2021/10/05 17:24:40;;;;;;;6.53;1.52;;;;;;;14.49;86.97;99783.94;20988724;28;20048;-70
2021/10/05 17:34:42;;;;;;;7.40;2.92;;;;;;;14.35;87.63;99796.81;20988077;28;20053;-70
2021/10/05 17:44:44;;;;;;;3.15;1.40;;;;;;;14.22;88.41;99819.28;20989756;28;20427;-69
2021/10/05 17:54:46;;;;;;;3.92;1.55;;;;;;;14.19;88.95;99832.59;20987931;28;20059;-69
2021/10/05 18:04:48;;;;;;;5.80;1.83;;;;;;;14.08;89.94;99835.59;20988180;28;20099;-69
2021/10/05 18:14:50;;;;;;;4.97;1.85;;;;;;;13.99;90.27;99843.88;20971040;28;20052;-69
2021/10/05 18:24:52;;;;;;;6.00;2.03;;;;;;;13.91;90.19;99859.13;20969533;28;20045;-69
2021/10/05 18:34:54;;;;;;;3.03;1.30;;;;;;;13.80;90.30;99873.53;20986435;28;20048;-69
2021/10/05 18:44:56;;;;;;;4.97;1.50;;;;;;;13.69;91.04;99890.63;20994114;28;20063;-70
2021/10/05 18:54:59;;;;;;;5.85;1.60;;;;;;;13.64;90.38;99909.19;21000731;28;20080;-70
2021/10/05 19:05:01;;;;;;;4.85;2.05;;;;;;;13.54;90.78;99934.97;20998598;28;20070;-70
2021/10/05 19:15:04;;;;;;;3.95;1.73;;;;;;;13.39;90.65;99958.31;20983289;28;20562;-70
2021/10/05 19:25:08;;;;;;;8.60;3.08;;;;;;;13.22;90.05;99980.81;21001975;28;20083;-70
2021/10/05 19:35:10;;;;;;;5.13;1.60;;;;;;;12.93;90.37;99989.56;20999614;28;20501;-70
2021/10/05 19:45:12;;;;;;;4.43;1.30;;;;;;;12.73;90.05;100018.25;21006437;28;20048;-70
2021/10/05 19:55:15;;;;;;;5.03;1.45;;;;;;;12.44;90.94;100051.50;20980847;28;20366;-70
2021/10/05 20:05:18;;;;;;;3.13;1.48;;;;;;;12.35;91.18;100064.03;20994162;28;20040;-70
2021/10/05 20:15:20;;;;;;;5.07;1.60;;;;;;;12.20;89.82;100075.81;20991975;28;20479;-70
2021/10/05 20:25:22;;;;;;;3.47;1.50;;;;;;;12.05;89.85;100082.34;20991441;28;20474;-70
2021/10/05 20:35:25;;;;;;;4.72;2.03;;;;;;;11.88;90.64;100106.41;20990685;28;20106;-70
2021/10/05 20:45:27;;;;;;;4.07;1.30;;;;;;;12.02;90.48;100113.91;20991241;28;20045;-70
2021/10/05 20:55:29;;;;;;;5.05;1.27;;;;;;;12.17;89.28;100113.53;20973013;28;20094;-70
2021/10/05 21:05:31;;;;;;;6.97;1.70;;;;;;;12.22;89.29;100106.38;20988159;28;20044;-70
2021/10/05 21:15:33;;;;;;;3.97;1.38;;;;;;;12.10;89.04;100130.31;20990332;28;20090;-71
2021/10/05 21:25:37;;;;;;;3.80;1.02;;;;;;;11.93;89.13;100140.38;20986610;28;20101;-72
2021/10/05 21:35:39;;;;;;;5.57;1.50;;;;;;;11.69;90.75;100153.19;20941443;28;20103;-72
2021/10/05 21:45:41;;;;;;;3.30;1.30;;;;;;;11.63;90.67;100157.69;20904745;28;20083;-71
2021/10/05 21:55:42;;;;;;;3.78;1.50;;;;;;;11.51;90.27;100175.47;20887133;28;20053;-71
2021/10/05 22:05:50;;;;;;;3.20;1.38;;;;;;;11.59;88.65;100187.50;20930095;28;20098;-71
2021/10/05 22:15:51;;;;;;;5.55;1.20;;;;;;;11.59;88.04;100188.38;20990651;28;20689;-71
2021/10/05 22:25:53;;;;;;;5.85;1.40;;;;;;;11.47;88.46;100199.16;20994404;28;20135;-71
2021/10/05 22:35:55;;;;;;;5.82;1.45;;;;;;;11.28;88.69;100211.81;21011738;28;20409;-71
2021/10/05 22:45:57;;;;;;;4.55;1.42;;;;;;;11.18;88.69;100218.16;20993384;28;20049;-71
2021/10/05 22:55:59;;;;;;;6.10;1.20;;;;;;;11.04;89.18;100227.16;21011433;28;20052;-71
2021/10/05 23:06:01;;;;;;;6.65;1.05;;;;;;;11.18;88.82;100246.97;21010048;28;20059;-72
2021/10/05 23:16:03;;;;;;;7.13;1.40;;;;;;;11.51;86.82;100248.00;21010744;28;20097;-70
2021/10/05 23:26:04;;;;;;;6.53;1.38;;;;;;;11.52;86.28;100262.84;21008037;28;20044;-71
2021/10/05 23:36:06;;;;;;;5.78;1.30;;;;;;;11.20;87.59;100263.50;20932580;28;20048;-71
2021/10/05 23:46:09;;;;;;;11.98;1.83;;;;;;;11.08;88.87;100279.50;20911753;28;20045;-71
2021/10/05 23:56:11;;;;;;;8.30;1.60;;;;;;;10.91;88.53;100293.75;20910247;28;20138;-71
